createdAt,value
2019-03-05T00:01:14.212Z,7.10
2019-03-05T00:03:43.459Z,6.97
2019-03-05T00:06:12.825Z,4.33
2019-03-05T00:08:42.053Z,4.10
2019-03-05T00:11:11.230Z,4.75
2019-03-05T00:13:40.431Z,5.83
2019-03-05T00:16:09.686Z,8.18
2019-03-05T00:18:39.096Z,7.30
2019-03-05T00:21:08.346Z,4.65
2019-03-05T00:23:51.394Z,4.37
2019-03-05T00:26:30.029Z,5.85
2019-03-05T00:29:05.312Z,5.70
2019-03-05T00:31:40.241Z,4.33
2019-03-05T00:34:18.527Z,4.83
2019-03-05T00:36:50.958Z,4.92
2019-03-05T00:42:12.034Z,2.80
2019-03-05T00:45:00.673Z,7.58
2019-03-05T00:47:33.165Z,5.83
2019-03-05T00:50:17.594Z,4.08
2019-03-05T00:53:09.591Z,9.98
2019-03-05T00:55:50.744Z,4.03
2019-03-05T00:58:29.175Z,4.20
2019-03-05T01:01:27.155Z,3.80
2019-03-05T01:04:02.490Z,1.15
2019-03-05T01:06:31.739Z,1.47
2019-03-05T01:09:01.055Z,1.67
2019-03-05T01:11:30.490Z,2.27
2019-03-05T01:13:59.810Z,1.92
2019-03-05T01:16:33.339Z,1.60
2019-03-05T01:19:02.538Z,1.75
2019-03-05T01:21:31.821Z,1.92
2019-03-05T01:24:01.101Z,1.42
2019-03-05T01:26:30.353Z,2.70
2019-03-05T01:28:59.652Z,1.72
2019-03-05T01:31:42.437Z,1.98
2019-03-05T01:34:16.078Z,2.37
2019-03-05T01:36:52.951Z,6.42
2019-03-05T01:39:32.781Z,0.98
2019-03-05T01:42:02.079Z,1.12
2019-03-05T01:44:31.327Z,3.75
2019-03-05T01:47:00.576Z,1.57
2019-03-05T01:49:29.842Z,3.65
2019-03-05T01:51:59.051Z,2.35
2019-03-05T01:54:28.386Z,3.85
2019-03-05T01:56:57.662Z,3.15
2019-03-05T01:59:26.888Z,4.72
2019-03-05T02:01:56.127Z,4.00
2019-03-05T02:04:25.493Z,5.67
2019-03-05T02:06:54.899Z,4.75
2019-03-05T02:09:24.147Z,4.08
2019-03-05T02:11:53.329Z,2.50
2019-03-05T02:14:22.714Z,2.47
2019-03-05T02:16:52.027Z,4.53
2019-03-05T02:19:35.832Z,5.87
2019-03-05T02:22:07.675Z,4.47
2019-03-05T02:25:13.269Z,6.08
2019-03-05T02:27:54.820Z,4.15
2019-03-05T02:30:59.029Z,4.12
2019-03-05T02:33:51.146Z,3.62
2019-03-05T02:36:46.426Z,5.33
2019-03-05T02:39:46.089Z,5.53
2019-03-05T02:42:42.739Z,5.47
2019-03-05T02:45:31.609Z,4.47
2019-03-05T02:48:13.604Z,5.47
2019-03-05T02:50:51.894Z,4.97
2019-03-05T02:53:36.227Z,4.65
2019-03-05T02:56:23.544Z,5.28
2019-03-05T02:58:51.849Z,2.65
2019-03-05T03:01:38.942Z,5.30
2019-03-05T03:04:09.791Z,3.35
2019-03-05T03:06:39.607Z,3.30
2019-03-05T03:09:32.078Z,5.15
2019-03-05T03:12:01.319Z,3.10
2019-03-05T03:14:30.582Z,2.35
2019-03-05T03:16:59.813Z,5.40
2019-03-05T03:19:28.993Z,3.62
2019-03-05T03:21:58.166Z,3.42
2019-03-05T03:24:27.513Z,6.97
2019-03-05T03:26:56.837Z,2.75
2019-03-05T03:29:26.175Z,3.20
2019-03-05T03:31:55.412Z,3.90
2019-03-05T03:34:24.689Z,4.95
2019-03-05T03:36:54.003Z,4.55
2019-03-05T03:39:23.214Z,2.40
2019-03-05T03:41:52.515Z,4.10
2019-03-05T03:44:21.751Z,4.72
2019-03-05T03:46:51.068Z,5.35
2019-03-05T03:49:20.407Z,4.78
2019-03-05T03:51:51.339Z,6.45
2019-03-05T03:54:20.688Z,4.50
2019-03-05T03:56:51.066Z,6.00
2019-03-05T03:59:20.285Z,4.97
2019-03-05T04:01:49.534Z,5.28
2019-03-05T04:04:18.785Z,8.43
2019-03-05T04:06:48.063Z,5.83
2019-03-05T04:09:17.336Z,6.50
2019-03-05T04:11:46.647Z,6.83
2019-03-05T04:14:15.896Z,5.50
2019-03-05T04:16:45.162Z,6.45
2019-03-05T04:19:16.097Z,5.47
2019-03-05T04:21:45.271Z,5.50
2019-03-05T04:24:14.516Z,5.10
2019-03-05T04:26:43.810Z,5.00
2019-03-05T04:29:13.136Z,4.70
2019-03-05T04:31:42.316Z,7.33
2019-03-05T04:34:11.546Z,5.33
2019-03-05T04:36:40.788Z,4.75
2019-03-05T04:39:11.915Z,5.08
2019-03-05T04:41:41.140Z,7.95
2019-03-05T04:44:10.604Z,6.08
2019-03-05T04:46:39.809Z,9.35
2019-03-05T04:49:10.641Z,8.98
2019-03-05T04:51:41.508Z,7.17
2019-03-05T04:54:10.822Z,6.08
2019-03-05T04:56:40.145Z,9.08
2019-03-05T04:59:09.366Z,6.28
2019-03-05T05:01:38.618Z,5.55
2019-03-05T05:04:07.811Z,11.73
2019-03-05T05:06:37.113Z,8.20
2019-03-05T05:09:07.437Z,7.90
2019-03-05T05:11:36.675Z,9.63
2019-03-05T05:14:05.976Z,8.38
2019-03-05T05:16:35.230Z,9.48
2019-03-05T05:19:04.475Z,7.95
2019-03-05T05:21:33.842Z,8.40
2019-03-05T05:24:03.101Z,7.72
2019-03-05T05:26:32.345Z,8.55
2019-03-05T05:29:01.655Z,7.40
2019-03-05T05:31:30.827Z,8.50
2019-03-05T05:34:00.074Z,8.80
2019-03-05T05:36:29.491Z,7.67
2019-03-05T05:38:58.733Z,6.70
2019-03-05T05:41:28.021Z,8.95
2019-03-05T05:43:57.470Z,6.55
2019-03-05T05:46:26.845Z,8.65
2019-03-05T05:48:56.186Z,9.93
2019-03-05T05:51:25.652Z,13.32
2019-03-05T05:53:55.070Z,7.90
2019-03-05T05:56:24.625Z,11.70
2019-03-05T05:58:53.894Z,10.00
2019-03-05T06:01:23.293Z,7.28
2019-03-05T06:03:52.833Z,10.25
2019-03-05T06:06:22.221Z,8.35
2019-03-05T06:08:51.605Z,26.50
2019-03-05T06:11:21.067Z,9.98
2019-03-05T06:13:50.330Z,10.95
2019-03-05T06:16:19.593Z,6.55
2019-03-05T06:18:49.045Z,11.95
2019-03-05T06:21:18.536Z,7.62
2019-03-05T06:23:47.788Z,9.30
2019-03-05T06:26:17.131Z,10.68
2019-03-05T06:28:46.457Z,8.58
2019-03-05T06:31:16.054Z,10.30
2019-03-05T06:33:45.367Z,8.60
2019-03-05T06:36:14.696Z,12.40
2019-03-05T06:38:44.149Z,9.13
2019-03-05T06:41:13.483Z,12.65
2019-03-05T06:43:42.867Z,9.63
2019-03-05T06:46:12.497Z,9.00
2019-03-05T06:48:41.907Z,10.03
2019-03-05T06:51:11.409Z,8.85
2019-03-05T06:53:40.904Z,9.18
2019-03-05T06:56:10.317Z,8.33
2019-03-05T06:58:39.637Z,8.63
2019-03-05T07:01:09.188Z,9.15
2019-03-05T07:03:38.444Z,11.80
2019-03-05T07:06:36.927Z,7.10
2019-03-05T07:09:18.085Z,6.90
2019-03-05T07:12:08.844Z,9.00
2019-03-05T07:15:07.027Z,8.58
2019-03-05T07:18:00.788Z,12.23
2019-03-05T07:20:39.072Z,8.88
2019-03-05T07:23:26.496Z,9.23
2019-03-05T07:25:55.761Z,12.03
2019-03-05T07:28:25.124Z,11.38
2019-03-05T07:30:54.374Z,15.72
2019-03-05T07:33:24.025Z,15.32
2019-03-05T07:35:53.418Z,6.78
2019-03-05T07:38:22.843Z,6.60
2019-03-05T07:40:52.145Z,9.63
2019-03-05T07:43:21.698Z,10.58
2019-03-05T07:45:50.960Z,8.78
2019-03-05T07:48:20.293Z,8.08
2019-03-05T07:50:49.741Z,8.43
2019-03-05T07:53:19.133Z,7.97
2019-03-05T07:55:48.535Z,10.53
2019-03-05T07:58:18.060Z,9.28
2019-03-05T08:00:47.352Z,8.78
2019-03-05T08:03:16.745Z,12.93
2019-03-05T08:05:47.499Z,7.28
2019-03-05T08:08:53.528Z,10.98
2019-03-05T08:11:22.945Z,13.28
2019-03-05T08:14:10.534Z,8.00
2019-03-05T08:16:39.928Z,9.80
2019-03-05T08:19:09.184Z,15.70
2019-03-05T08:21:38.774Z,10.95
2019-03-05T08:24:08.098Z,15.83
2019-03-05T08:26:37.360Z,10.78
2019-03-05T08:29:06.699Z,8.75
2019-03-05T08:31:36.020Z,8.43
2019-03-05T08:34:05.497Z,10.05
2019-03-05T08:36:34.819Z,8.93
2019-03-05T08:39:05.929Z,6.72
2019-03-05T08:41:35.200Z,7.67
2019-03-05T08:44:04.705Z,7.95
2019-03-05T08:46:34.040Z,7.83
2019-03-05T08:49:03.345Z,8.68
2019-03-05T08:51:32.617Z,8.83
2019-03-05T08:54:02.019Z,9.40
2019-03-05T08:56:31.378Z,7.92
2019-03-05T08:59:00.776Z,7.28
2019-03-05T09:01:30.130Z,4.67
2019-03-05T09:03:59.522Z,6.25
2019-03-05T09:06:29.062Z,11.20
2019-03-05T09:08:58.334Z,8.05
2019-03-05T09:11:27.863Z,6.03
2019-03-05T09:13:57.190Z,6.17
2019-03-05T09:16:26.528Z,8.93
2019-03-05T09:18:55.885Z,10.95
2019-03-05T09:21:25.331Z,7.72
2019-03-05T09:23:54.739Z,6.87
2019-03-05T09:26:24.137Z,9.30
2019-03-05T09:28:54.825Z,7.37
2019-03-05T09:31:24.096Z,10.23
2019-03-05T09:33:53.627Z,8.00
2019-03-05T09:36:22.897Z,12.18
2019-03-05T09:38:52.207Z,6.10
2019-03-05T09:41:21.695Z,6.70
2019-03-05T09:43:50.974Z,9.95
2019-03-05T09:46:20.375Z,6.83
2019-03-05T09:48:49.814Z,10.60
2019-03-05T09:51:19.219Z,7.12
2019-03-05T09:53:48.532Z,7.05
2019-03-05T09:56:17.979Z,12.18
2019-03-05T09:58:47.524Z,6.45
2019-03-05T10:01:16.783Z,6.33
2019-03-05T10:03:46.177Z,7.58
2019-03-05T10:06:15.610Z,10.95
2019-03-05T10:08:44.999Z,8.50
2019-03-05T10:11:14.319Z,6.03
2019-03-05T10:13:43.730Z,9.95
2019-03-05T10:16:13.168Z,8.13
2019-03-05T10:18:42.587Z,11.03
2019-03-05T10:21:12.157Z,5.85
2019-03-05T10:23:41.466Z,6.75
2019-03-05T10:26:10.799Z,5.55
2019-03-05T10:28:40.534Z,6.60
2019-03-05T10:31:09.872Z,7.12
2019-03-05T10:33:39.198Z,7.45
2019-03-05T10:36:09.166Z,10.60
2019-03-05T10:38:38.430Z,6.83
2019-03-05T10:41:07.893Z,8.05
2019-03-05T10:43:37.143Z,7.28
2019-03-05T10:46:06.469Z,10.40
2019-03-05T10:48:35.916Z,9.55
2019-03-05T10:51:05.444Z,5.53
2019-03-05T10:53:34.765Z,5.50
2019-03-05T10:56:04.144Z,6.45
2019-03-05T10:58:34.474Z,12.82
2019-03-05T11:01:05.570Z,6.53
2019-03-05T11:03:34.983Z,8.13
2019-03-05T11:06:06.046Z,9.63
2019-03-05T11:08:35.384Z,8.25
2019-03-05T11:11:13.023Z,7.58
2019-03-05T11:13:35.871Z,6.62
2019-03-05T11:16:06.197Z,7.12
2019-03-05T11:18:35.595Z,7.10
2019-03-05T11:21:05.496Z,6.90
2019-03-05T11:23:34.932Z,10.15
2019-03-05T11:26:04.611Z,10.03
2019-03-05T11:28:34.011Z,7.08
2019-03-05T11:31:03.402Z,6.25
2019-03-05T11:33:32.809Z,11.08
2019-03-05T11:36:02.209Z,9.58
2019-03-05T11:38:31.456Z,5.72
2019-03-05T11:41:00.916Z,10.25
2019-03-05T11:43:30.318Z,6.55
2019-03-05T11:45:59.570Z,6.08
2019-03-05T11:48:28.995Z,8.63
2019-03-05T11:50:58.552Z,6.30
2019-03-05T11:53:27.845Z,5.72
2019-03-05T11:55:57.239Z,6.92
2019-03-05T11:58:26.609Z,9.83
2019-03-05T12:01:00.278Z,7.50
2019-03-05T12:03:29.621Z,8.43
2019-03-05T15:54:21.893Z,10.45
2019-03-05T15:56:51.140Z,10.93
2019-03-05T15:59:20.499Z,9.38
2019-03-05T16:01:49.911Z,9.98
2019-03-05T16:04:19.257Z,12.20
2019-03-05T16:06:49.780Z,11.60
2019-03-05T16:09:19.184Z,11.18
2019-03-05T16:11:48.394Z,9.85
2019-03-05T16:14:17.657Z,10.32
2019-03-05T16:16:47.099Z,8.73
2019-03-05T16:19:17.738Z,12.68
2019-03-05T16:21:47.281Z,16.23
2019-03-05T16:24:16.492Z,10.68
2019-03-05T16:26:45.820Z,10.82
2019-03-05T16:29:16.329Z,14.80
2019-03-05T16:31:49.807Z,10.32
2019-03-05T16:34:35.726Z,9.93
2019-03-05T16:37:07.131Z,11.03
2019-03-05T16:39:38.122Z,15.73
2019-03-05T16:42:18.249Z,8.68
2019-03-05T16:44:52.536Z,10.78
2019-03-05T16:47:39.903Z,11.50
2019-03-05T16:50:27.612Z,9.88
2019-03-05T16:53:14.848Z,9.98
2019-03-05T16:55:45.813Z,8.15
2019-03-05T16:58:22.813Z,9.08
2019-03-05T17:00:59.497Z,13.10
2019-03-05T17:03:32.834Z,9.45
2019-03-05T17:06:06.215Z,12.75
2019-03-05T17:08:37.158Z,7.53
2019-03-05T17:11:14.804Z,9.28
2019-03-05T17:13:44.042Z,8.70
2019-03-05T17:16:13.226Z,5.87
2019-03-05T17:18:42.463Z,7.03
2019-03-05T17:21:11.695Z,8.58
2019-03-05T17:23:40.870Z,8.10
2019-03-05T17:26:10.128Z,8.55
2019-03-05T17:28:39.332Z,8.25
2019-03-05T17:31:08.574Z,11.53
2019-03-05T17:33:38.218Z,9.88
2019-03-05T17:36:07.401Z,6.83
2019-03-05T17:38:36.651Z,6.55
2019-03-05T17:41:06.021Z,6.15
2019-03-05T17:43:35.204Z,6.70
2019-03-05T17:46:04.459Z,10.03
2019-03-05T17:48:33.661Z,6.22
2019-03-05T17:51:02.907Z,6.25
2019-03-05T17:53:32.912Z,8.65
2019-03-05T17:56:02.157Z,13.55
2019-03-05T17:58:31.406Z,10.25
2019-03-05T18:01:00.671Z,9.03
2019-03-05T18:03:30.016Z,9.68
2019-03-05T18:05:59.383Z,10.78
2019-03-05T18:08:28.665Z,13.00
2019-03-05T18:10:57.898Z,9.55
2019-03-05T18:13:27.113Z,12.35
2019-03-05T18:15:56.337Z,11.45
2019-03-05T18:18:25.514Z,10.58
2019-03-05T18:20:54.765Z,9.93
2019-03-05T18:23:24.031Z,13.68
2019-03-05T18:25:53.337Z,12.55
2019-03-05T18:28:22.509Z,8.15
2019-03-05T18:30:51.762Z,12.10
2019-03-05T18:33:21.030Z,9.20
2019-03-05T18:35:50.606Z,13.20
2019-03-05T18:38:19.848Z,12.65
2019-03-05T18:40:49.477Z,14.40
2019-03-05T18:43:18.756Z,12.45
2019-03-05T18:45:47.961Z,10.40
2019-03-05T18:48:18.096Z,11.22
2019-03-05T18:50:47.276Z,14.23
2019-03-05T18:53:16.643Z,11.48
2019-03-05T18:55:45.987Z,12.25
2019-03-05T18:58:15.186Z,13.78
2019-03-05T19:00:44.453Z,13.10
2019-03-05T19:03:18.244Z,9.18
2019-03-05T19:05:47.902Z,11.65
2019-03-05T19:08:17.082Z,14.98
2019-03-05T19:10:46.413Z,11.65
2019-03-05T19:13:15.734Z,11.10
2019-03-05T19:15:45.285Z,13.93
2019-03-05T19:18:14.552Z,12.37
2019-03-05T19:20:43.799Z,12.93
2019-03-05T19:23:13.099Z,9.10
2019-03-05T19:25:44.653Z,9.35
2019-03-05T19:28:14.061Z,8.55
2019-03-05T19:30:49.086Z,12.53
2019-03-05T19:33:18.355Z,11.70
2019-03-05T19:35:47.676Z,11.08
2019-03-05T19:38:17.018Z,10.30
2019-03-05T19:40:47.596Z,14.03
2019-03-05T19:43:16.848Z,12.43
2019-03-05T19:45:46.091Z,20.95
2019-03-05T19:48:15.296Z,16.32
2019-03-05T19:50:44.729Z,11.80
2019-03-05T19:53:14.039Z,17.90
2019-03-05T19:55:43.359Z,12.30
2019-03-05T19:58:14.184Z,13.43
2019-03-05T20:00:53.287Z,13.80
2019-03-05T20:03:22.538Z,15.35
2019-03-05T20:05:51.812Z,13.38
2019-03-05T20:08:21.153Z,14.78
2019-03-05T20:10:50.430Z,14.13
2019-03-05T20:13:19.705Z,15.23
2019-03-05T20:15:49.041Z,14.75
2019-03-05T20:18:18.492Z,16.42
2019-03-05T20:20:47.765Z,12.80
2019-03-05T20:23:17.179Z,12.43
2019-03-05T20:25:46.551Z,16.42
2019-03-05T20:28:15.723Z,13.68
2019-03-05T20:30:45.099Z,10.55
2019-03-05T20:33:14.399Z,12.90
2019-03-05T20:35:44.264Z,10.48
2019-03-05T20:38:13.555Z,12.33
2019-03-05T20:40:42.854Z,11.45
2019-03-05T20:43:12.176Z,12.98
2019-03-05T20:45:44.798Z,18.15
2019-03-05T20:48:14.656Z,14.68
2019-03-05T20:50:43.909Z,13.72
2019-03-05T20:53:13.199Z,14.23
2019-03-05T20:55:42.433Z,14.93
2019-03-05T20:58:11.729Z,15.78
2019-03-05T21:00:41.249Z,18.07
2019-03-05T21:03:11.660Z,17.00
2019-03-05T21:05:44.166Z,18.57
2019-03-05T21:08:13.400Z,22.85
2019-03-05T21:10:42.722Z,23.05
2019-03-05T21:13:12.326Z,18.87
2019-03-05T21:15:41.595Z,18.05
2019-03-05T21:18:13.742Z,17.57
2019-03-05T21:20:43.005Z,22.93
2019-03-05T21:23:12.249Z,23.57
2019-03-05T21:25:41.466Z,23.12
2019-03-05T21:28:10.720Z,26.27
2019-03-05T21:30:39.896Z,23.15
2019-03-05T21:33:09.114Z,22.87
2019-03-05T21:35:39.300Z,18.07
2019-03-05T21:38:08.546Z,22.85
2019-03-05T21:40:37.727Z,17.32
2019-03-05T21:43:06.969Z,19.25
2019-03-05T21:45:51.978Z,19.42
2019-03-05T21:48:21.274Z,16.52
2019-03-05T21:50:50.522Z,17.25
2019-03-05T21:53:19.769Z,20.23
2019-03-05T21:55:48.965Z,20.77
2019-03-05T21:58:18.160Z,18.10
2019-03-05T22:00:47.354Z,19.48
2019-03-05T22:03:16.736Z,17.60
2019-03-05T22:05:45.921Z,22.98
2019-03-05T22:08:15.112Z,21.07
2019-03-05T22:10:44.314Z,18.98
2019-03-05T22:13:13.509Z,17.75
2019-03-05T22:15:42.751Z,19.73
2019-03-05T22:18:11.997Z,19.92
2019-03-05T22:20:41.323Z,23.25
2019-03-05T22:23:10.654Z,20.40
2019-03-05T22:25:39.864Z,18.35
2019-03-05T22:28:09.326Z,20.45
2019-03-05T22:30:39.230Z,21.12
2019-03-05T22:33:08.670Z,22.77
2019-03-05T22:35:38.635Z,22.98
2019-03-05T22:38:07.883Z,23.70
2019-03-05T22:40:37.197Z,26.23
2019-03-05T22:43:06.447Z,31.05
2019-03-05T22:45:35.863Z,22.40
2019-03-05T22:48:05.110Z,22.02
2019-03-05T22:50:34.451Z,25.32
2019-03-05T22:53:03.694Z,19.02
2019-03-05T22:55:32.967Z,23.15
2019-03-05T22:58:02.384Z,21.68
2019-03-05T23:00:54.513Z,23.07
2019-03-05T23:03:29.089Z,21.02
2019-03-05T23:05:58.626Z,20.02
2019-03-05T23:08:27.868Z,24.23
2019-03-05T23:10:57.139Z,21.37
2019-03-05T23:13:26.752Z,27.67
2019-03-05T23:15:56.045Z,17.85
2019-03-05T23:18:25.274Z,17.75
2019-03-05T23:20:54.459Z,17.67
2019-03-05T23:23:23.739Z,20.88
2019-03-05T23:25:53.040Z,18.73
2019-03-05T23:28:22.395Z,15.25
2019-03-05T23:30:51.719Z,16.25
2019-03-05T23:33:20.921Z,16.62
2019-03-05T23:35:50.200Z,19.30
2019-03-05T23:38:19.503Z,19.23
2019-03-05T23:40:48.940Z,19.50
2019-03-05T23:43:18.257Z,19.42
2019-03-05T23:45:47.543Z,16.57
2019-03-05T23:48:16.720Z,14.07
2019-03-05T23:50:46.045Z,18.27
2019-03-05T23:53:15.592Z,18.20
2019-03-05T23:55:44.968Z,21.65
2019-03-05T23:58:14.149Z,18.23
